sensor_id;sensor_type;location;lat;lon;timestamp;pressure;altitude;pressure_sealevel;temperature;humidity
68474;BME280;55461;52.066;5.194;2022-12-18T00:01:00;102881.0;;;-2.62;95.0
68474;BME280;55461;52.066;5.194;2022-12-18T00:04:18;102891.00000000001;;;-2.52;94.93
68474;BME280;55461;52.066;5.194;2022-12-18T00:05:58;102879.0;;;-2.61;95.19
68474;BME280;55461;52.066;5.194;2022-12-18T00:07:36;102872.0;;;-2.59;94.75
68474;BME280;55461;52.066;5.194;2022-12-18T00:09:12;102863.00000000001;;;-2.68;95.29
68474;BME280;55461;52.066;5.194;2022-12-18T00:12:24;102855.0;;;-2.69;95.38
68474;BME280;55461;52.066;5.194;2022-12-18T00:14:00;102850.0;;;-2.65;95.12
68474;BME280;55461;52.066;5.194;2022-12-18T00:15:38;102852.0;;;-2.63;94.82
68474;BME280;55461;52.066;5.194;2022-12-18T00:18:52;102850.0;;;-2.72;95.24
68474;BME280;55461;52.066;5.194;2022-12-18T00:20:35;102847.0;;;-2.65;95.25
68474;BME280;55461;52.066;5.194;2022-12-18T00:22:12;102852.0;;;-2.66;95.06
68474;BME280;55461;52.066;5.194;2022-12-18T00:23:49;102854.0;;;-2.7;95.0
68474;BME280;55461;52.066;5.194;2022-12-18T00:27:03;102856.0;;;-2.71;94.87
68474;BME280;55461;52.066;5.194;2022-12-18T00:28:39;102856.0;;;-2.74;94.65
68474;BME280;55461;52.066;5.194;2022-12-18T00:30:15;102858.99999999999;;;-2.81;94.86
68474;BME280;55461;52.066;5.194;2022-12-18T00:33:29;102856.0;;;-2.9;95.34
68474;BME280;55461;52.066;5.194;2022-12-18T00:35:06;102850.0;;;-2.93;95.42
68474;BME280;55461;52.066;5.194;2022-12-18T00:36:43;102842.0;;;-2.86;95.68
68474;BME280;55461;52.066;5.194;2022-12-18T00:38:19;102847.0;;;-2.87;95.4
68474;BME280;55461;52.066;5.194;2022-12-18T00:41:32;102849.0;;;-2.86;95.53
68474;BME280;55461;52.066;5.194;2022-12-18T00:43:09;102852.0;;;-2.83;95.59
68474;BME280;55461;52.066;5.194;2022-12-18T00:44:45;102845.0;;;-2.83;95.42
68474;BME280;55461;52.066;5.194;2022-12-18T00:47:57;102844.0;;;-2.87;95.4
68474;BME280;55461;52.066;5.194;2022-12-18T00:49:33;102843.0;;;-2.84;95.05
68474;BME280;55461;52.066;5.194;2022-12-18T00:51:09;102844.0;;;-2.88;95.36
68474;BME280;55461;52.066;5.194;2022-12-18T00:54:22;102843.0;;;-2.83;95.19
68474;BME280;55461;52.066;5.194;2022-12-18T00:55:59;102841.00000000001;;;-2.85;95.15
68474;BME280;55461;52.066;5.194;2022-12-18T00:57:35;102834.99999999999;;;-2.76;94.94
68474;BME280;55461;52.066;5.194;2022-12-18T01:00:48;102839.00000000001;;;-2.85;95.16
68474;BME280;55461;52.066;5.194;2022-12-18T01:02:24;102842.0;;;-2.9;95.04
68474;BME280;55461;52.066;5.194;2022-12-18T01:04:01;102839.00000000001;;;-2.92;95.05
68474;BME280;55461;52.066;5.194;2022-12-18T01:05:38;102842.0;;;-2.97;94.87
68474;BME280;55461;52.066;5.194;2022-12-18T01:08:52;102855.0;;;-2.98;95.2
68474;BME280;55461;52.066;5.194;2022-12-18T01:10:28;102861.99999999999;;;-2.97;95.11
68474;BME280;55461;52.066;5.194;2022-12-18T01:12:05;102865.00000000001;;;-2.96;95.11
68474;BME280;55461;52.066;5.194;2022-12-18T01:15:19;102867.0;;;-2.96;95.05
68474;BME280;55461;52.066;5.194;2022-12-18T01:16:55;102863.00000000001;;;-2.94;95.19
68474;BME280;55461;52.066;5.194;2022-12-18T01:18:32;102850.0;;;-3.01;95.35
68474;BME280;55461;52.066;5.194;2022-12-18T01:20:10;102850.0;;;-3.0;95.36
68474;BME280;55461;52.066;5.194;2022-12-18T01:23:23;102850.0;;;-3.08;95.52
68474;BME280;55461;52.066;5.194;2022-12-18T01:25:04;102855.0;;;-3.01;95.43
68474;BME280;55461;52.066;5.194;2022-12-18T01:26:40;102859.99999999999;;;-2.98;95.32
68474;BME280;55461;52.066;5.194;2022-12-18T01:29:53;102861.99999999999;;;-2.94;95.01
68474;BME280;55461;52.066;5.194;2022-12-18T01:31:32;102848.0;;;-2.93;94.89
68474;BME280;55461;52.066;5.194;2022-12-18T01:33:09;102849.0;;;-2.97;94.92
68474;BME280;55461;52.066;5.194;2022-12-18T01:34:46;102849.0;;;-2.98;95.06
68474;BME280;55461;52.066;5.194;2022-12-18T01:38:01;102855.0;;;-3.09;95.5
68474;BME280;55461;52.066;5.194;2022-12-18T01:39:37;102861.99999999999;;;-2.98;95.28
68474;BME280;55461;52.066;5.194;2022-12-18T01:41:14;102866.00000000001;;;-2.98;95.27
68474;BME280;55461;52.066;5.194;2022-12-18T01:44:55;102864.00000000001;;;-3.05;95.21
68474;BME280;55461;52.066;5.194;2022-12-18T01:46:57;102865.00000000001;;;-3.03;94.81
68474;BME280;55461;52.066;5.194;2022-12-18T01:48:33;102867.0;;;-3.11;94.92
68474;BME280;55461;52.066;5.194;2022-12-18T01:50:14;102866.00000000001;;;-3.16;94.54
68474;BME280;55461;52.066;5.194;2022-12-18T01:51:51;102867.0;;;-3.09;94.55
68474;BME280;55461;52.066;5.194;2022-12-18T01:55:05;102870.0;;;-3.19;95.1
68474;BME280;55461;52.066;5.194;2022-12-18T01:56:42;102867.0;;;-3.17;94.82
68474;BME280;55461;52.066;5.194;2022-12-18T01:58:19;102869.0;;;-3.09;94.24
68474;BME280;55461;52.066;5.194;2022-12-18T02:00:03;102870.0;;;-3.12;93.94
68474;BME280;55461;52.066;5.194;2022-12-18T02:03:20;102871.0;;;-3.14;94.18
68474;BME280;55461;52.066;5.194;2022-12-18T02:04:56;102872.0;;;-3.22;93.96
68474;BME280;55461;52.066;5.194;2022-12-18T02:06:36;102871.0;;;-3.27;94.3
68474;BME280;55461;52.066;5.194;2022-12-18T02:08:19;102875.0;;;-3.22;94.04
68474;BME280;55461;52.066;5.194;2022-12-18T02:11:51;102876.0;;;-3.31;94.3
68474;BME280;55461;52.066;5.194;2022-12-18T02:13:37;102879.0;;;-3.35;93.94
68474;BME280;55461;52.066;5.194;2022-12-18T02:15:24;102879.0;;;-3.41;94.14
68474;BME280;55461;52.066;5.194;2022-12-18T02:17:07;102877.0;;;-3.4;93.85
68474;BME280;55461;52.066;5.194;2022-12-18T02:18:50;102877.0;;;-3.44;93.91
68474;BME280;55461;52.066;5.194;2022-12-18T02:22:25;102889.00000000001;;;-3.47;93.95
68474;BME280;55461;52.066;5.194;2022-12-18T02:24:17;102889.00000000001;;;-3.53;94.04
68474;BME280;55461;52.066;5.194;2022-12-18T02:26:08;102884.99999999999;;;-3.54;93.59
68474;BME280;55461;52.066;5.194;2022-12-18T02:27:49;102882.0;;;-3.67;93.51
68474;BME280;55461;52.066;5.194;2022-12-18T02:29:31;102880.0;;;-3.66;94.02
68474;BME280;55461;52.066;5.194;2022-12-18T02:32:53;102882.0;;;-3.65;93.9
68474;BME280;55461;52.066;5.194;2022-12-18T02:34:34;102875.0;;;-3.67;93.82
68474;BME280;55461;52.066;5.194;2022-12-18T02:36:14;102876.0;;;-3.7;93.73
68474;BME280;55461;52.066;5.194;2022-12-18T02:37:53;102880.0;;;-3.74;93.56
68474;BME280;55461;52.066;5.194;2022-12-18T02:41:09;102881.0;;;-3.74;93.59
68474;BME280;55461;52.066;5.194;2022-12-18T02:42:46;102881.0;;;-3.75;93.69
68474;BME280;55461;52.066;5.194;2022-12-18T02:44:22;102880.0;;;-3.84;93.5
68474;BME280;55461;52.066;5.194;2022-12-18T02:46:00;102870.0;;;-3.92;93.83
68474;BME280;55461;52.066;5.194;2022-12-18T02:47:56;102865.00000000001;;;-3.92;94.18
68474;BME280;55461;52.066;5.194;2022-12-18T02:51:23;102867.0;;;-4.0;94.14
68474;BME280;55461;52.066;5.194;2022-12-18T02:53:12;102869.0;;;-4.03;94.38
68474;BME280;55461;52.066;5.194;2022-12-18T02:54:57;102868.0;;;-4.05;94.43
68474;BME280;55461;52.066;5.194;2022-12-18T02:56:46;102865.00000000001;;;-4.09;94.28
68474;BME280;55461;52.066;5.194;2022-12-18T02:58:30;102861.99999999999;;;-4.13;94.32
68474;BME280;55461;52.066;5.194;2022-12-18T03:01:54;102858.99999999999;;;-4.12;94.43
68474;BME280;55461;52.066;5.194;2022-12-18T03:03:38;102858.99999999999;;;-4.13;94.25
68474;BME280;55461;52.066;5.194;2022-12-18T03:05:21;102856.0;;;-4.15;94.59
68474;BME280;55461;52.066;5.194;2022-12-18T03:07:01;102847.0;;;-4.19;94.5
68474;BME280;55461;52.066;5.194;2022-12-18T03:10:27;102845.0;;;-4.22;94.5
68474;BME280;55461;52.066;5.194;2022-12-18T03:12:10;102842.0;;;-4.21;94.41
68474;BME280;55461;52.066;5.194;2022-12-18T03:13:53;102843.0;;;-4.21;94.38
68474;BME280;55461;52.066;5.194;2022-12-18T03:15:35;102844.0;;;-4.24;94.47
68474;BME280;55461;52.066;5.194;2022-12-18T03:17:16;102840.00000000001;;;-4.24;94.5
68474;BME280;55461;52.066;5.194;2022-12-18T03:20:39;102834.99999999999;;;-4.24;94.36
68474;BME280;55461;52.066;5.194;2022-12-18T03:22:20;102826.0;;;-4.27;93.97
68474;BME280;55461;52.066;5.194;2022-12-18T03:24:00;102821.0;;;-4.26;94.27
68474;BME280;55461;52.066;5.194;2022-12-18T03:25:39;102818.0;;;-4.3;94.09
68474;BME280;55461;52.066;5.194;2022-12-18T03:29:02;102817.0;;;-4.25;93.79
68474;BME280;55461;52.066;5.194;2022-12-18T03:30:45;102817.0;;;-4.32;94.08
68474;BME280;55461;52.066;5.194;2022-12-18T03:32:25;102814.00000000001;;;-4.37;93.99
68474;BME280;55461;52.066;5.194;2022-12-18T03:34:09;102813.00000000001;;;-4.37;93.77
68474;BME280;55461;52.066;5.194;2022-12-18T03:37:26;102814.00000000001;;;-4.44;93.97
68474;BME280;55461;52.066;5.194;2022-12-18T03:39:02;102817.0;;;-4.44;94.07
68474;BME280;55461;52.066;5.194;2022-12-18T03:40:45;102819.0;;;-4.49;94.06
68474;BME280;55461;52.066;5.194;2022-12-18T03:42:42;102816.00000000001;;;-4.43;94.27
68474;BME280;55461;52.066;5.194;2022-12-18T03:46:11;102805.0;;;-4.45;94.15
68474;BME280;55461;52.066;5.194;2022-12-18T03:47:58;102805.0;;;-4.41;93.95
68474;BME280;55461;52.066;5.194;2022-12-18T03:49:40;102808.99999999999;;;-4.41;93.53
68474;BME280;55461;52.066;5.194;2022-12-18T03:51:25;102806.0;;;-4.47;93.31
68474;BME280;55461;52.066;5.194;2022-12-18T03:53:14;102804.0;;;-4.49;93.44
68474;BME280;55461;52.066;5.194;2022-12-18T03:54:56;102804.0;;;-4.48;93.32
68474;BME280;55461;52.066;5.194;2022-12-18T03:58:19;102806.0;;;-4.51;93.65
68474;BME280;55461;52.066;5.194;2022-12-18T03:59:59;102805.0;;;-4.48;93.43
68474;BME280;55461;52.066;5.194;2022-12-18T04:01:40;102793.0;;;-4.51;93.21
68474;BME280;55461;52.066;5.194;2022-12-18T04:03:20;102781.0;;;-4.62;93.03
68474;BME280;55461;52.066;5.194;2022-12-18T04:06:38;102782.0;;;-4.66;92.96
68474;BME280;55461;52.066;5.194;2022-12-18T04:08:16;102781.0;;;-4.63;93.09
68474;BME280;55461;52.066;5.194;2022-12-18T04:09:55;102782.0;;;-4.67;92.98
68474;BME280;55461;52.066;5.194;2022-12-18T04:13:09;102776.0;;;-4.67;92.9
68474;BME280;55461;52.066;5.194;2022-12-18T04:14:45;102768.0;;;-4.65;92.57
68474;BME280;55461;52.066;5.194;2022-12-18T04:16:21;102769.0;;;-4.58;92.37
68474;BME280;55461;52.066;5.194;2022-12-18T04:17:57;102768.0;;;-4.68;92.84
68474;BME280;55461;52.066;5.194;2022-12-18T04:21:10;102768.0;;;-4.63;92.76
68474;BME280;55461;52.066;5.194;2022-12-18T04:22:47;102765.00000000001;;;-4.73;92.61
68474;BME280;55461;52.066;5.194;2022-12-18T04:24:24;102767.0;;;-4.65;92.57
68474;BME280;55461;52.066;5.194;2022-12-18T04:27:36;102771.0;;;-4.69;92.37
68474;BME280;55461;52.066;5.194;2022-12-18T04:29:12;102767.0;;;-4.67;92.39
68474;BME280;55461;52.066;5.194;2022-12-18T04:30:49;102772.0;;;-4.68;92.11
68474;BME280;55461;52.066;5.194;2022-12-18T04:34:01;102774.0;;;-4.73;92.32
68474;BME280;55461;52.066;5.194;2022-12-18T04:35:37;102779.0;;;-4.65;92.12
68474;BME280;55461;52.066;5.194;2022-12-18T04:37:13;102784.99999999999;;;-4.72;92.37
68474;BME280;55461;52.066;5.194;2022-12-18T04:38:49;102786.99999999999;;;-4.75;92.29
68474;BME280;55461;52.066;5.194;2022-12-18T04:42:02;102790.00000000001;;;-4.69;92.15
68474;BME280;55461;52.066;5.194;2022-12-18T04:43:38;102794.0;;;-4.72;91.7
68474;BME280;55461;52.066;5.194;2022-12-18T04:45:14;102802.0;;;-4.71;91.51
68474;BME280;55461;52.066;5.194;2022-12-18T04:48:26;102804.0;;;-4.74;91.44
68474;BME280;55461;52.066;5.194;2022-12-18T04:50:03;102803.0;;;-4.75;91.43
68474;BME280;55461;52.066;5.194;2022-12-18T04:51:40;102800.0;;;-4.78;91.22
68474;BME280;55461;52.066;5.194;2022-12-18T04:54:53;102806.0;;;-4.82;91.3
68474;BME280;55461;52.066;5.194;2022-12-18T04:56:31;102809.99999999999;;;-4.77;91.08
68474;BME280;55461;52.066;5.194;2022-12-18T04:58:07;102814.00000000001;;;-4.81;90.98
68474;BME280;55461;52.066;5.194;2022-12-18T04:59:43;102816.00000000001;;;-4.81;91.04
68474;BME280;55461;52.066;5.194;2022-12-18T05:02:55;102819.0;;;-4.83;90.7
68474;BME280;55461;52.066;5.194;2022-12-18T05:04:32;102819.0;;;-4.83;90.6
68474;BME280;55461;52.066;5.194;2022-12-18T05:06:08;102820.0;;;-4.9;90.87
68474;BME280;55461;52.066;5.194;2022-12-18T05:09:21;102820.0;;;-4.85;91.13
68474;BME280;55461;52.066;5.194;2022-12-18T05:11:00;102819.0;;;-4.85;91.23
68474;BME280;55461;52.066;5.194;2022-12-18T05:12:37;102820.0;;;-4.9;90.75
68474;BME280;55461;52.066;5.194;2022-12-18T05:15:51;102820.0;;;-4.91;91.24
68474;BME280;55461;52.066;5.194;2022-12-18T05:17:28;102821.0;;;-4.96;91.15
68474;BME280;55461;52.066;5.194;2022-12-18T05:19:04;102822.0;;;-4.86;90.64
68474;BME280;55461;52.066;5.194;2022-12-18T05:20:41;102825.0;;;-4.91;90.78
68474;BME280;55461;52.066;5.194;2022-12-18T05:23:53;102826.0;;;-4.91;90.9
68474;BME280;55461;52.066;5.194;2022-12-18T05:25:29;102834.99999999999;;;-4.95;90.92
68474;BME280;55461;52.066;5.194;2022-12-18T05:27:05;102838.00000000001;;;-4.9;90.77
68474;BME280;55461;52.066;5.194;2022-12-18T05:30:18;102833.99999999999;;;-4.84;90.64
68474;BME280;55461;52.066;5.194;2022-12-18T05:31:54;102833.0;;;-4.88;90.57
68474;BME280;55461;52.066;5.194;2022-12-18T05:33:32;102832.0;;;-4.96;90.68
68474;BME280;55461;52.066;5.194;2022-12-18T05:36:48;102833.0;;;-4.94;90.54
68474;BME280;55461;52.066;5.194;2022-12-18T05:38:25;102831.0;;;-4.88;90.74
68474;BME280;55461;52.066;5.194;2022-12-18T05:40:03;102825.0;;;-4.9;90.72
68474;BME280;55461;52.066;5.194;2022-12-18T05:41:40;102831.0;;;-4.87;90.55
68474;BME280;55461;52.066;5.194;2022-12-18T05:44:54;102824.0;;;-4.91;90.4
68474;BME280;55461;52.066;5.194;2022-12-18T05:46:30;102827.0;;;-4.88;90.56
68474;BME280;55461;52.066;5.194;2022-12-18T05:48:07;102822.0;;;-4.85;90.4
68474;BME280;55461;52.066;5.194;2022-12-18T05:51:21;102818.0;;;-4.88;90.27
68474;BME280;55461;52.066;5.194;2022-12-18T05:52:57;102817.0;;;-4.88;90.34
68474;BME280;55461;52.066;5.194;2022-12-18T05:54:34;102808.99999999999;;;-4.85;90.3
68474;BME280;55461;52.066;5.194;2022-12-18T05:57:50;102805.0;;;-4.86;90.02
68474;BME280;55461;52.066;5.194;2022-12-18T05:59:26;102807.0;;;-4.84;89.88
68474;BME280;55461;52.066;5.194;2022-12-18T06:01:07;102806.0;;;-4.85;90.06
68474;BME280;55461;52.066;5.194;2022-12-18T06:02:46;102805.0;;;-4.85;90.05
68474;BME280;55461;52.066;5.194;2022-12-18T06:05:59;102800.0;;;-4.9;90.13
68474;BME280;55461;52.066;5.194;2022-12-18T06:07:35;102793.0;;;-4.91;89.92
68474;BME280;55461;52.066;5.194;2022-12-18T06:09:12;102782.0;;;-4.91;89.96
68474;BME280;55461;52.066;5.194;2022-12-18T06:12:27;102783.99999999999;;;-4.98;90.1
68474;BME280;55461;52.066;5.194;2022-12-18T06:14:05;102781.0;;;-4.9;89.77
68474;BME280;55461;52.066;5.194;2022-12-18T06:15:41;102779.0;;;-4.93;90.02
68474;BME280;55461;52.066;5.194;2022-12-18T06:17:17;102777.0;;;-4.96;89.97
68474;BME280;55461;52.066;5.194;2022-12-18T06:20:32;102779.0;;;-4.92;90.11
68474;BME280;55461;52.066;5.194;2022-12-18T06:22:08;102776.0;;;-4.93;90.04
68474;BME280;55461;52.066;5.194;2022-12-18T06:25:20;102774.0;;;-4.96;89.87
68474;BME280;55461;52.066;5.194;2022-12-18T06:26:57;102783.0;;;-4.98;89.94
68474;BME280;55461;52.066;5.194;2022-12-18T06:28:33;102783.99999999999;;;-4.97;89.87
68474;BME280;55461;52.066;5.194;2022-12-18T06:30:10;102790.00000000001;;;-4.88;89.86
68474;BME280;55461;52.066;5.194;2022-12-18T06:31:46;102783.0;;;-4.9;89.63
68474;BME280;55461;52.066;5.194;2022-12-18T06:35:03;102776.0;;;-4.85;89.29
68474;BME280;55461;52.066;5.194;2022-12-18T06:36:40;102772.0;;;-4.96;89.43
68474;BME280;55461;52.066;5.194;2022-12-18T06:38:16;102767.0;;;-5.01;89.79
68474;BME280;55461;52.066;5.194;2022-12-18T06:41:28;102771.0;;;-5.02;90.01
68474;BME280;55461;52.066;5.194;2022-12-18T06:43:05;102767.0;;;-4.9;89.57
68474;BME280;55461;52.066;5.194;2022-12-18T06:44:42;102763.00000000001;;;-4.91;89.41
68474;BME280;55461;52.066;5.194;2022-12-18T06:47:55;102761.99999999999;;;-4.96;89.49
68474;BME280;55461;52.066;5.194;2022-12-18T06:49:31;102752.0;;;-4.99;89.53
68474;BME280;55461;52.066;5.194;2022-12-18T06:51:08;102747.0;;;-4.95;89.51
68474;BME280;55461;52.066;5.194;2022-12-18T06:52:44;102742.0;;;-4.99;89.73
68474;BME280;55461;52.066;5.194;2022-12-18T06:56:00;102740.00000000001;;;-4.98;89.59
68474;BME280;55461;52.066;5.194;2022-12-18T06:57:36;102740.00000000001;;;-4.97;89.4
68474;BME280;55461;52.066;5.194;2022-12-18T06:59:14;102734.99999999999;;;-4.99;89.58
68474;BME280;55461;52.066;5.194;2022-12-18T07:02:27;102738.00000000001;;;-5.0;89.57
68474;BME280;55461;52.066;5.194;2022-12-18T07:04:03;102738.00000000001;;;-5.03;89.7
68474;BME280;55461;52.066;5.194;2022-12-18T07:05:39;102736.99999999999;;;-5.04;89.57
68474;BME280;55461;52.066;5.194;2022-12-18T07:08:54;102740.00000000001;;;-5.03;89.67
68474;BME280;55461;52.066;5.194;2022-12-18T07:10:31;102733.0;;;-5.05;89.52
68474;BME280;55461;52.066;5.194;2022-12-18T07:12:07;102726.0;;;-5.01;89.36
68474;BME280;55461;52.066;5.194;2022-12-18T07:13:44;102725.0;;;-5.01;89.2
68474;BME280;55461;52.066;5.194;2022-12-18T07:16:57;102718.0;;;-5.04;89.68
68474;BME280;55461;52.066;5.194;2022-12-18T07:18:33;102722.0;;;-5.05;89.67
68474;BME280;55461;52.066;5.194;2022-12-18T07:20:10;102719.0;;;-5.03;89.66
68474;BME280;55461;52.066;5.194;2022-12-18T07:23:22;102717.0;;;-5.02;89.58
68474;BME280;55461;52.066;5.194;2022-12-18T07:24:58;102718.0;;;-5.04;89.48
68474;BME280;55461;52.066;5.194;2022-12-18T07:26:35;102716.00000000001;;;-5.01;89.72
68474;BME280;55461;52.066;5.194;2022-12-18T07:29:47;102715.00000000001;;;-5.07;89.79
68474;BME280;55461;52.066;5.194;2022-12-18T07:31:24;102715.00000000001;;;-5.02;89.71
68474;BME280;55461;52.066;5.194;2022-12-18T07:33:00;102709.99999999999;;;-5.07;89.62
68474;BME280;55461;52.066;5.194;2022-12-18T07:34:37;102702.0;;;-5.06;89.64
68474;BME280;55461;52.066;5.194;2022-12-18T07:37:50;102702.0;;;-5.03;89.65
68474;BME280;55461;52.066;5.194;2022-12-18T07:39:26;102697.0;;;-5.0;89.71
68474;BME280;55461;52.066;5.194;2022-12-18T07:41:04;102691.00000000001;;;-4.99;89.55
68474;BME280;55461;52.066;5.194;2022-12-18T07:44:17;102684.99999999999;;;-4.94;89.33
68474;BME280;55461;52.066;5.194;2022-12-18T07:45:55;102686.99999999999;;;-5.02;89.59
68474;BME280;55461;52.066;5.194;2022-12-18T07:47:34;102688.00000000001;;;-4.97;89.71
68474;BME280;55461;52.066;5.194;2022-12-18T07:49:10;102680.0;;;-5.02;89.95
68474;BME280;55461;52.066;5.194;2022-12-18T07:52:22;102679.0;;;-5.06;90.09
68474;BME280;55461;52.066;5.194;2022-12-18T07:53:59;102675.0;;;-4.94;89.84
68474;BME280;55461;52.066;5.194;2022-12-18T07:55:35;102674.0;;;-5.0;89.95
68474;BME280;55461;52.066;5.194;2022-12-18T07:58:48;102669.0;;;-4.9;90.1
68474;BME280;55461;52.066;5.194;2022-12-18T08:00:24;102664.00000000001;;;-4.87;89.91
68474;BME280;55461;52.066;5.194;2022-12-18T08:02:00;102665.00000000001;;;-4.84;89.84
68474;BME280;55461;52.066;5.194;2022-12-18T08:05:14;102659.99999999999;;;-4.84;90.02
68474;BME280;55461;52.066;5.194;2022-12-18T08:06:51;102663.00000000001;;;-4.84;90.14
68474;BME280;55461;52.066;5.194;2022-12-18T08:08:27;102664.00000000001;;;-4.76;90.14
68474;BME280;55461;52.066;5.194;2022-12-18T08:10:05;102661.99999999999;;;-4.74;90.22
68474;BME280;55461;52.066;5.194;2022-12-18T08:13:19;102665.00000000001;;;-4.75;90.14
68474;BME280;55461;52.066;5.194;2022-12-18T08:14:54;102672.0;;;-4.72;90.42
68474;BME280;55461;52.066;5.194;2022-12-18T08:16:31;102679.0;;;-4.61;90.22
68474;BME280;55461;52.066;5.194;2022-12-18T08:19:43;102678.0;;;-4.55;90.03
68474;BME280;55461;52.066;5.194;2022-12-18T08:21:21;102684.99999999999;;;-4.53;89.98
68474;BME280;55461;52.066;5.194;2022-12-18T08:22:58;102691.00000000001;;;-4.51;89.96
68474;BME280;55461;52.066;5.194;2022-12-18T08:26:11;102691.00000000001;;;-4.49;89.93
68474;BME280;55461;52.066;5.194;2022-12-18T08:27:47;102692.0;;;-4.45;89.73
68474;BME280;55461;52.066;5.194;2022-12-18T08:29:24;102692.0;;;-4.42;89.69
68474;BME280;55461;52.066;5.194;2022-12-18T08:32:36;102691.00000000001;;;-4.48;89.71
68474;BME280;55461;52.066;5.194;2022-12-18T08:34:11;102686.99999999999;;;-4.42;89.68
68474;BME280;55461;52.066;5.194;2022-12-18T08:35:48;102692.0;;;-4.41;89.63
68474;BME280;55461;52.066;5.194;2022-12-18T08:37:24;102699.0;;;-4.41;89.9
68474;BME280;55461;52.066;5.194;2022-12-18T08:40:37;102692.0;;;-4.37;89.83
68474;BME280;55461;52.066;5.194;2022-12-18T08:43:48;102675.0;;;-4.36;89.81
68474;BME280;55461;52.066;5.194;2022-12-18T08:47:01;102672.0;;;-4.37;90.0
68474;BME280;55461;52.066;5.194;2022-12-18T08:48:37;102669.0;;;-4.31;89.89
68474;BME280;55461;52.066;5.194;2022-12-18T08:50:14;102659.99999999999;;;-4.27;90.0
68474;BME280;55461;52.066;5.194;2022-12-18T08:53:30;102666.00000000001;;;-4.32;90.26
68474;BME280;55461;52.066;5.194;2022-12-18T08:55:08;102656.0;;;-4.28;90.38
68474;BME280;55461;52.066;5.194;2022-12-18T08:56:44;102665.00000000001;;;-4.23;90.07
68474;BME280;55461;52.066;5.194;2022-12-18T08:58:21;102664.00000000001;;;-4.2;89.98
68474;BME280;55461;52.066;5.194;2022-12-18T09:01:33;102658.99999999999;;;-4.09;89.82
68474;BME280;55461;52.066;5.194;2022-12-18T09:03:11;102658.0;;;-4.06;89.66
68474;BME280;55461;52.066;5.194;2022-12-18T09:04:48;102652.0;;;-4.02;89.95
68474;BME280;55461;52.066;5.194;2022-12-18T09:08:00;102656.0;;;-3.94;89.63
68474;BME280;55461;52.066;5.194;2022-12-18T09:09:36;102664.00000000001;;;-3.85;89.48
68474;BME280;55461;52.066;5.194;2022-12-18T09:11:14;102669.0;;;-3.79;89.53
68474;BME280;55461;52.066;5.194;2022-12-18T09:12:54;102666.00000000001;;;-3.74;89.38
68474;BME280;55461;52.066;5.194;2022-12-18T09:16:06;102670.0;;;-3.66;89.13
68474;BME280;55461;52.066;5.194;2022-12-18T09:17:43;102675.0;;;-3.62;89.01
68474;BME280;55461;52.066;5.194;2022-12-18T09:19:19;102663.00000000001;;;-3.54;89.0
68474;BME280;55461;52.066;5.194;2022-12-18T09:22:31;102664.00000000001;;;-3.51;88.8
68474;BME280;55461;52.066;5.194;2022-12-18T09:24:12;102674.0;;;-3.48;88.71
68474;BME280;55461;52.066;5.194;2022-12-18T09:25:49;102674.0;;;-3.51;89.16
68474;BME280;55461;52.066;5.194;2022-12-18T09:29:02;102673.0;;;-3.48;88.98
68474;BME280;55461;52.066;5.194;2022-12-18T09:30:39;102673.0;;;-3.47;88.87
68474;BME280;55461;52.066;5.194;2022-12-18T09:32:16;102667.0;;;-3.38;88.82
68474;BME280;55461;52.066;5.194;2022-12-18T09:33:55;102661.99999999999;;;-3.3;88.83
68474;BME280;55461;52.066;5.194;2022-12-18T09:37:07;102654.0;;;-3.27;88.81
68474;BME280;55461;52.066;5.194;2022-12-18T09:38:43;102646.0;;;-3.21;88.21
68474;BME280;55461;52.066;5.194;2022-12-18T09:40:22;102641.00000000001;;;-3.19;88.56
68474;BME280;55461;52.066;5.194;2022-12-18T09:43:42;102641.00000000001;;;-3.17;88.67
68474;BME280;55461;52.066;5.194;2022-12-18T09:45:21;102642.0;;;-3.16;88.77
68474;BME280;55461;52.066;5.194;2022-12-18T09:47:03;102639.00000000001;;;-3.14;88.34
68474;BME280;55461;52.066;5.194;2022-12-18T09:48:49;102641.00000000001;;;-3.07;88.51
68474;BME280;55461;52.066;5.194;2022-12-18T09:52:12;102642.0;;;-2.96;88.3
68474;BME280;55461;52.066;5.194;2022-12-18T09:53:55;102634.99999999999;;;-2.94;87.93
68474;BME280;55461;52.066;5.194;2022-12-18T09:55:34;102634.99999999999;;;-2.84;87.71
68474;BME280;55461;52.066;5.194;2022-12-18T09:57:15;102633.0;;;-2.88;87.6
68474;BME280;55461;52.066;5.194;2022-12-18T09:58:58;102627.0;;;-2.75;87.5
68474;BME280;55461;52.066;5.194;2022-12-18T10:02:15;102623.0;;;-2.72;87.47
68474;BME280;55461;52.066;5.194;2022-12-18T10:03:53;102620.0;;;-2.68;87.15
68474;BME280;55461;52.066;5.194;2022-12-18T10:05:37;102617.0;;;-2.71;87.01
68474;BME280;55461;52.066;5.194;2022-12-18T10:07:27;102617.0;;;-2.69;87.0
68474;BME280;55461;52.066;5.194;2022-12-18T10:11:01;102621.0;;;-2.65;86.61
68474;BME280;55461;52.066;5.194;2022-12-18T10:12:51;102622.0;;;-2.65;86.96
68474;BME280;55461;52.066;5.194;2022-12-18T10:14:36;102616.00000000001;;;-2.47;86.24
68474;BME280;55461;52.066;5.194;2022-12-18T10:16:19;102621.0;;;-2.41;86.23
68474;BME280;55461;52.066;5.194;2022-12-18T10:18:14;102624.0;;;-2.39;86.13
68474;BME280;55461;52.066;5.194;2022-12-18T10:19:59;102619.0;;;-2.26;85.83
68474;BME280;55461;52.066;5.194;2022-12-18T10:23:28;102615.00000000001;;;-2.25;85.21
68474;BME280;55461;52.066;5.194;2022-12-18T10:25:17;102617.0;;;-2.24;85.48
68474;BME280;55461;52.066;5.194;2022-12-18T10:26:59;102621.0;;;-2.2;85.45
68474;BME280;55461;52.066;5.194;2022-12-18T10:28:45;102614.00000000001;;;-2.17;85.58
68474;BME280;55461;52.066;5.194;2022-12-18T10:30:24;102609.99999999999;;;-2.1;85.13
68474;BME280;55461;52.066;5.194;2022-12-18T10:33:38;102598.0;;;-2.12;85.03
68474;BME280;55461;52.066;5.194;2022-12-18T10:35:18;102597.0;;;-2.1;85.03
68474;BME280;55461;52.066;5.194;2022-12-18T10:36:56;102597.0;;;-2.04;84.75
68474;BME280;55461;52.066;5.194;2022-12-18T10:40:12;102592.0;;;-1.99;84.66
68474;BME280;55461;52.066;5.194;2022-12-18T10:41:49;102590.00000000001;;;-2.06;84.31